Terminal Aerodrome Forecast
Issued by NWS Goodland, KS

Home | Current Version | Previous Version | Text Only | Print | Product List | Glossary On
Versions: 1 2 3 4 5 6 7 8 9 10 11 12 13 14 15 16 17
000
FTUS43 KGLD 251740 AAB
TAFGLD
TAF AMD
KGLD 251740Z 2518/2618 04015KT P6SM BKN060
     FM260000 05014KT P6SM VCSH OVC040
     FM260300 02015KT P6SM VCSH OVC010
     FM260500 36017G25KT P6SM OVC015
     FM260900 34017G25KT P6SM BKN040
     FM261300 33014KT P6SM SCT080=

USA.gov is the U.S. government's official web portal to all federal, state and local government web resources and services.